createdAt,value
2023-04-12T00:00:37.739Z,11.10
2023-04-12T00:03:10.429Z,11.00
2023-04-12T00:05:47.643Z,11.00
2023-04-12T00:08:25.206Z,11.00
2023-04-12T00:10:55.670Z,11.10
2023-04-12T00:13:25.955Z,10.90
2023-04-12T00:16:01.255Z,10.90
2023-04-12T00:18:31.423Z,10.90
2023-04-12T00:21:01.625Z,10.90
2023-04-12T00:23:31.867Z,10.80
2023-04-12T00:26:02.119Z,10.80
2023-04-12T00:28:32.369Z,10.80
2023-04-12T00:31:05.915Z,10.70
2023-04-12T00:33:37.712Z,10.70
2023-04-12T00:36:12.638Z,10.70
2023-04-12T00:38:42.858Z,10.70
2023-04-12T00:41:13.096Z,10.60
2023-04-12T00:43:43.938Z,10.50
2023-04-12T00:46:17.719Z,10.50
2023-04-12T00:48:48.551Z,10.60
2023-04-12T00:51:22.463Z,10.60
2023-04-12T00:53:52.788Z,10.60
2023-04-12T00:56:23.837Z,10.50
2023-04-12T00:58:54.296Z,10.40
2023-04-12T01:01:28.241Z,10.30
2023-04-12T01:04:01.503Z,10.30
2023-04-12T01:06:54.078Z,10.20
2023-04-12T01:09:38.069Z,10.30
2023-04-12T01:12:24.048Z,10.30
2023-04-12T01:15:05.630Z,10.20
2023-04-12T01:17:50.872Z,10.30
2023-04-12T01:20:27.053Z,10.20
2023-04-12T01:23:20.870Z,10.20
2023-04-12T01:26:15.850Z,10.20
2023-04-12T01:28:53.722Z,10.20
2023-04-12T01:31:26.338Z,10.20
2023-04-12T01:34:00.699Z,10.20
2023-04-12T01:36:35.322Z,10.10
2023-04-12T01:39:09.868Z,10.00
2023-04-12T01:41:49.177Z,10.00
2023-04-12T01:44:22.367Z,10.00
2023-04-12T01:46:53.136Z,9.90
2023-04-12T01:49:31.927Z,9.90
2023-04-12T01:52:12.799Z,10.00
2023-04-12T01:54:48.014Z,9.90
2023-04-12T01:57:21.451Z,9.90
2023-04-12T01:59:59.608Z,9.90
2023-04-12T02:02:30.487Z,9.90
2023-04-12T02:05:03.228Z,9.90
2023-04-12T02:07:34.416Z,9.90
2023-04-12T02:10:04.734Z,9.90
2023-04-12T02:12:34.969Z,9.90
2023-04-12T02:15:09.387Z,9.80
2023-04-12T02:17:41.178Z,9.80
2023-04-12T02:20:14.752Z,9.90
2023-04-12T02:22:45.014Z,9.90
2023-04-12T02:25:15.575Z,10.00
2023-04-12T02:27:46.458Z,9.90
2023-04-12T02:30:20.437Z,9.80
2023-04-12T02:32:58.984Z,9.80
2023-04-12T02:35:29.274Z,9.90
2023-04-12T02:37:59.541Z,10.10
2023-04-12T02:40:30.062Z,10.00
2023-04-12T02:43:00.244Z,9.80
2023-04-12T02:45:33.091Z,9.80
2023-04-12T02:48:03.325Z,9.70
2023-04-12T02:50:36.897Z,9.70
2023-04-12T02:53:07.774Z,9.70
2023-04-12T02:55:40.422Z,9.60
2023-04-12T02:58:10.683Z,9.60
2023-04-12T03:00:43.953Z,9.60
2023-04-12T03:03:14.257Z,9.60
2023-04-12T03:05:47.516Z,9.60
2023-04-12T03:08:17.724Z,9.60
2023-04-12T03:10:48.002Z,9.60
2023-04-12T03:13:18.206Z,9.60
2023-04-12T03:15:51.699Z,9.60
2023-04-12T03:18:21.995Z,9.60
2023-04-12T03:20:52.559Z,9.60
2023-04-12T03:23:23.204Z,9.70
2023-04-12T03:25:53.434Z,9.60
2023-04-12T03:28:23.685Z,9.60
2023-04-12T03:30:57.015Z,9.60
2023-04-12T03:33:27.625Z,9.50
2023-04-12T03:35:57.961Z,9.50
2023-04-12T03:38:28.150Z,9.50
2023-04-12T03:41:00.679Z,9.50
2023-04-12T03:43:35.973Z,9.60
2023-04-12T03:46:10.215Z,9.60
2023-04-12T03:48:42.636Z,9.60
2023-04-12T03:51:15.881Z,9.50
2023-04-12T03:53:46.746Z,9.50
2023-04-12T03:56:17.000Z,9.50
2023-04-12T03:58:49.427Z,9.60
2023-04-12T04:01:23.804Z,9.60
2023-04-12T04:03:54.272Z,9.60
2023-04-12T04:06:26.036Z,9.60
2023-04-12T04:08:56.393Z,9.60
2023-04-12T04:11:29.145Z,9.50
2023-04-12T04:13:59.429Z,9.50
2023-04-12T04:16:32.367Z,9.50
2023-04-12T04:19:02.842Z,9.50
2023-04-12T04:21:33.233Z,9.40
2023-04-12T04:24:04.299Z,9.30
2023-04-12T04:26:38.418Z,9.20
2023-04-12T04:29:08.972Z,9.10
2023-04-12T04:31:41.806Z,9.00
2023-04-12T04:34:14.455Z,9.10
2023-04-12T04:36:47.019Z,9.10
2023-04-12T04:39:17.261Z,9.00
2023-04-12T04:41:54.848Z,9.00
2023-04-12T04:44:25.979Z,8.90
2023-04-12T04:47:00.865Z,8.90
2023-04-12T04:49:31.154Z,8.90
2023-04-12T04:52:03.830Z,8.90
2023-04-12T04:54:34.724Z,8.90
2023-04-12T04:57:08.496Z,8.90
2023-04-12T04:59:41.354Z,8.90
2023-04-12T05:02:14.223Z,8.90
2023-04-12T05:04:44.473Z,8.90
2023-04-12T05:07:15.539Z,8.90
2023-04-12T05:09:45.797Z,8.90
2023-04-12T05:12:16.456Z,8.90
2023-04-12T05:14:49.907Z,8.90
2023-04-12T05:17:24.536Z,8.80
2023-04-12T05:19:54.796Z,8.80
2023-04-12T05:22:25.052Z,8.80
2023-04-12T05:24:56.044Z,8.80
2023-04-12T05:27:27.835Z,8.80
2023-04-12T05:29:59.129Z,8.70
2023-04-12T05:32:31.906Z,8.70
2023-04-12T05:35:02.131Z,8.80
2023-04-12T05:37:32.336Z,8.80
2023-04-12T05:40:02.646Z,8.80
2023-04-12T05:42:32.897Z,8.70
2023-04-12T05:45:05.738Z,8.80
2023-04-12T05:47:40.186Z,8.70
2023-04-12T05:50:14.167Z,8.70
2023-04-12T05:52:44.708Z,8.70
2023-04-12T05:55:14.993Z,8.70
2023-04-12T05:57:49.898Z,8.70
2023-04-12T06:00:21.720Z,8.70
2023-04-12T06:02:55.068Z,8.70
2023-04-12T06:05:25.826Z,8.70
2023-04-12T06:07:56.031Z,8.70
2023-04-12T06:10:26.294Z,8.70
2023-04-12T06:12:56.755Z,8.80
2023-04-12T06:15:27.005Z,8.80
2023-04-12T06:18:00.607Z,8.70
2023-04-12T06:20:31.048Z,8.70
2023-04-12T06:23:01.302Z,8.70
2023-04-12T06:25:32.050Z,8.70
2023-04-12T06:28:04.469Z,8.70
2023-04-12T06:30:36.223Z,8.70
2023-04-12T06:33:09.031Z,8.70
2023-04-12T06:35:39.273Z,8.70
2023-04-12T06:38:09.483Z,8.70
2023-04-12T06:40:39.828Z,8.70
2023-04-12T06:43:10.093Z,8.70
2023-04-12T06:45:40.210Z,8.70
2023-04-12T06:48:14.447Z,8.80
2023-04-12T06:50:44.788Z,8.90
2023-04-12T06:53:18.071Z,8.90
2023-04-12T06:55:48.208Z,8.90
2023-04-12T06:58:18.412Z,8.90
2023-04-12T07:00:48.623Z,9.00
2023-04-12T07:03:21.642Z,9.00
2023-04-12T07:05:51.849Z,9.10
2023-04-12T07:08:22.050Z,9.00
2023-04-12T07:10:56.969Z,9.10
2023-04-12T07:13:27.303Z,9.10
2023-04-12T07:15:58.270Z,9.30
2023-04-12T07:18:31.373Z,9.30
2023-04-12T07:21:01.803Z,9.40
2023-04-12T07:23:32.016Z,9.40
2023-04-12T07:26:03.536Z,9.40
2023-04-12T07:28:33.741Z,9.40
2023-04-12T07:31:03.961Z,9.40
2023-04-12T07:33:38.813Z,9.40
2023-04-12T07:36:11.613Z,9.30
2023-04-12T07:38:41.962Z,9.40
2023-04-12T07:41:12.618Z,9.50
2023-04-12T07:43:42.860Z,9.60
2023-04-12T07:46:13.179Z,9.60
2023-04-12T07:48:51.005Z,9.60
2023-04-12T07:51:21.215Z,9.80
2023-04-12T07:53:52.187Z,9.80
2023-04-12T07:56:22.348Z,9.80
2023-04-12T07:58:52.595Z,9.80
2023-04-12T08:01:22.794Z,9.80
2023-04-12T08:03:58.507Z,9.80
2023-04-12T08:06:31.187Z,9.80
2023-04-12T08:09:03.165Z,9.90
2023-04-12T08:11:35.442Z,10.00
2023-04-12T08:14:05.788Z,10.10
2023-04-12T08:16:35.988Z,10.10
2023-04-12T08:19:08.918Z,10.10
2023-04-12T08:21:46.664Z,10.10
2023-04-12T08:24:16.917Z,10.10
2023-04-12T08:26:47.085Z,10.20
2023-04-12T08:29:17.311Z,10.20
2023-04-12T08:31:50.431Z,10.30
2023-04-12T08:34:26.429Z,10.50
2023-04-12T08:37:01.665Z,10.60
2023-04-12T08:39:31.856Z,10.70
2023-04-12T08:42:04.990Z,10.80
2023-04-12T08:44:40.842Z,10.80
2023-04-12T08:47:12.952Z,10.90
2023-04-12T08:49:46.122Z,11.00
2023-04-12T08:52:17.326Z,11.10
2023-04-12T08:54:47.842Z,11.00
2023-04-12T08:57:21.651Z,11.10
2023-04-12T08:59:56.626Z,11.10
2023-04-12T09:02:27.058Z,11.40
2023-04-12T09:05:00.382Z,11.90
2023-04-12T09:07:31.350Z,12.00
2023-04-12T09:10:02.286Z,12.00
2023-04-12T09:12:32.552Z,12.00
2023-04-12T09:15:16.721Z,12.10
2023-04-12T09:17:50.323Z,12.10
2023-04-12T09:20:29.705Z,12.00
2023-04-12T09:23:07.364Z,11.90
2023-04-12T09:25:46.042Z,11.90
2023-04-12T09:28:23.372Z,11.90
2023-04-12T09:30:54.980Z,11.90
2023-04-12T09:33:36.382Z,11.90
2023-04-12T09:36:14.624Z,11.90
2023-04-12T09:39:01.656Z,11.90
2023-04-12T09:41:32.244Z,12.00
2023-04-12T09:44:02.696Z,11.90
2023-04-12T09:46:33.201Z,11.90
2023-04-12T09:49:05.830Z,12.00
2023-04-12T09:51:38.743Z,12.00
2023-04-12T09:54:09.736Z,12.00
2023-04-12T09:56:42.394Z,12.10
2023-04-12T09:59:13.626Z,12.10
2023-04-12T10:01:48.405Z,12.30
2023-04-12T10:04:19.903Z,12.40
2023-04-12T10:06:53.098Z,12.40
2023-04-12T10:09:23.462Z,12.90
2023-04-12T10:11:55.909Z,13.50
2023-04-12T10:14:30.537Z,14.10
2023-04-12T10:17:03.322Z,14.80
2023-04-12T10:19:36.338Z,15.20
2023-04-12T10:22:10.600Z,16.20
2023-04-12T10:24:45.028Z,17.70
2023-04-12T10:27:16.571Z,18.70
2023-04-12T10:29:47.518Z,19.10
2023-04-12T10:32:26.453Z,19.60
2023-04-12T10:34:59.457Z,19.80
2023-04-12T10:38:06.522Z,19.20
2023-04-12T10:40:39.078Z,18.30
2023-04-12T10:43:28.137Z,17.00
2023-04-12T10:46:04.292Z,16.30
2023-04-12T10:48:39.239Z,15.40
2023-04-12T10:51:23.957Z,13.70
2023-04-12T10:54:19.326Z,12.60
2023-04-12T10:56:50.459Z,12.00
2023-04-12T10:59:21.192Z,11.60
2023-04-12T11:02:16.782Z,11.50
2023-04-12T11:05:14.556Z,11.40
2023-04-12T11:07:47.896Z,11.50
2023-04-12T11:10:21.918Z,11.50
2023-04-12T11:12:55.799Z,11.30
2023-04-12T11:15:33.834Z,11.10
2023-04-12T11:18:08.656Z,11.10
2023-04-12T11:20:42.993Z,11.10
2023-04-12T11:23:14.540Z,11.50
2023-04-12T11:25:55.342Z,11.90
2023-04-12T11:28:29.875Z,12.40
2023-04-12T11:31:01.967Z,12.80
2023-04-12T11:33:37.299Z,12.80
2023-04-12T11:36:09.453Z,12.80
2023-04-12T11:38:41.040Z,12.70
2023-04-12T11:41:14.001Z,12.50
2023-04-12T11:43:44.792Z,12.50
2023-04-12T11:46:15.424Z,12.50
2023-04-12T11:48:49.496Z,12.60
2023-04-12T11:51:25.352Z,12.90
2023-04-12T11:54:00.019Z,13.00
2023-04-12T11:56:33.192Z,13.10
2023-04-12T11:59:06.209Z,13.10
2023-04-12T12:01:39.216Z,13.30
2023-04-12T12:04:09.711Z,14.00
2023-04-12T12:06:40.445Z,14.20
2023-04-12T12:09:10.966Z,14.80
2023-04-12T12:11:43.894Z,14.90
2023-04-12T12:14:14.060Z,14.90
2023-04-12T12:16:44.317Z,15.10
2023-04-12T12:19:15.617Z,15.00
2023-04-12T12:21:45.749Z,15.10
2023-04-12T12:24:16.801Z,15.60
2023-04-12T12:26:52.980Z,16.10
2023-04-12T12:29:25.315Z,16.70
2023-04-12T12:31:56.015Z,15.80
2023-04-12T12:34:27.319Z,15.40
2023-04-12T12:36:58.835Z,15.50
2023-04-12T12:39:29.147Z,15.20
2023-04-12T12:42:03.408Z,15.50
2023-04-12T12:44:37.807Z,15.80
2023-04-12T12:47:13.914Z,15.80
2023-04-12T12:49:45.085Z,15.90
2023-04-12T12:52:17.765Z,15.80
2023-04-12T12:54:48.580Z,15.70
2023-04-12T12:57:21.370Z,15.30
2023-04-12T12:59:51.729Z,15.10
2023-04-12T13:02:21.996Z,14.90
2023-04-12T13:04:52.505Z,14.70
2023-04-12T13:07:22.715Z,14.70
2023-04-12T13:09:55.285Z,14.70
2023-04-12T13:12:28.341Z,14.60
2023-04-12T13:15:13.358Z,14.40
2023-04-12T13:17:48.086Z,14.50
2023-04-12T13:20:18.561Z,14.70
2023-04-12T13:22:48.750Z,14.90
2023-04-12T13:25:21.807Z,14.80
2023-04-12T13:27:55.393Z,14.60
2023-04-12T13:30:25.669Z,14.70
2023-04-12T13:32:57.077Z,14.90
2023-04-12T13:35:27.557Z,14.80
2023-04-12T13:37:57.710Z,14.90
2023-04-12T13:40:27.920Z,15.10
2023-04-12T13:43:00.685Z,15.10
2023-04-12T13:45:32.822Z,15.00
2023-04-12T13:48:04.379Z,15.20
2023-04-12T13:50:34.735Z,15.50
2023-04-12T13:53:04.966Z,15.60
2023-04-12T13:55:35.156Z,15.90
2023-04-12T13:58:07.893Z,16.10
2023-04-12T14:00:43.390Z,16.00
2023-04-12T14:03:15.902Z,15.90
2023-04-12T14:05:46.170Z,15.80
2023-04-12T14:08:16.493Z,16.00
2023-04-12T14:10:46.730Z,16.20
2023-04-12T14:13:19.494Z,16.20
2023-04-12T14:15:49.675Z,16.30
2023-04-12T14:18:19.937Z,16.50
2023-04-12T14:20:52.799Z,16.40
2023-04-12T14:23:24.978Z,15.80
2023-04-12T14:25:56.130Z,15.50
2023-04-12T14:28:31.096Z,15.30
2023-04-12T14:31:04.236Z,15.20
2023-04-12T14:33:35.983Z,15.10
2023-04-12T14:36:08.477Z,15.50
2023-04-12T14:38:38.731Z,15.80
2023-04-12T14:41:12.601Z,16.10
2023-04-12T14:43:46.033Z,16.10
2023-04-12T14:46:16.649Z,15.80
2023-04-12T14:48:47.261Z,15.20
2023-04-12T14:51:19.790Z,15.10
2023-04-12T14:53:50.133Z,15.10
2023-04-12T14:56:25.464Z,14.90
2023-04-12T14:58:59.687Z,14.60
2023-04-12T15:01:33.993Z,14.30
2023-04-12T15:04:06.778Z,14.00
2023-04-12T15:06:42.347Z,13.80
2023-04-12T15:09:12.614Z,13.60
2023-04-12T15:11:47.159Z,13.30
2023-04-12T15:14:20.938Z,13.20
2023-04-12T15:16:51.770Z,13.30
2023-04-12T15:19:23.443Z,13.50
2023-04-12T15:21:56.054Z,13.50
2023-04-12T15:24:27.385Z,13.00
2023-04-12T15:26:57.731Z,12.60
2023-04-12T15:29:31.023Z,12.40
2023-04-12T15:32:01.514Z,12.30
2023-04-12T15:34:34.100Z,12.10
2023-04-12T15:37:05.497Z,11.90
2023-04-12T15:39:37.035Z,11.80
2023-04-12T15:42:08.370Z,11.80
2023-04-12T15:44:41.577Z,11.80
2023-04-12T15:47:12.233Z,11.90
2023-04-12T15:49:42.975Z,12.00
2023-04-12T15:52:16.786Z,12.20
2023-04-12T15:54:46.936Z,12.20
2023-04-12T15:57:19.649Z,12.10
2023-04-12T15:59:55.651Z,12.10
2023-04-12T16:02:26.203Z,12.00
2023-04-12T16:04:57.855Z,11.90
2023-04-12T16:07:32.520Z,11.80
2023-04-12T16:10:03.549Z,11.80
2023-04-12T16:12:34.310Z,11.80
2023-04-12T16:15:10.870Z,11.60
2023-04-12T16:17:41.186Z,10.80
2023-04-12T16:20:16.927Z,10.30
2023-04-12T16:22:48.442Z,10.10
2023-04-12T16:25:19.840Z,9.80
2023-04-12T16:27:50.046Z,10.00
2023-04-12T16:30:23.418Z,10.40
2023-04-12T16:32:53.924Z,10.40
2023-04-12T16:35:24.893Z,10.50
2023-04-12T16:37:57.443Z,10.50
2023-04-12T16:40:28.115Z,10.70
2023-04-12T16:42:58.383Z,10.70
2023-04-12T16:45:31.149Z,10.70
2023-04-12T16:48:01.693Z,10.60
2023-04-12T16:50:32.253Z,10.50
2023-04-12T16:53:02.485Z,10.60
2023-04-12T16:55:32.859Z,10.80
2023-04-12T16:58:03.782Z,10.70
2023-04-12T17:00:37.150Z,10.60
2023-04-12T17:03:09.015Z,10.50
2023-04-12T17:05:40.868Z,10.50
2023-04-12T17:08:11.266Z,10.70
2023-04-12T17:10:41.657Z,10.70
2023-04-12T17:13:12.102Z,10.60
2023-04-12T17:15:49.792Z,10.30
2023-04-12T17:18:20.435Z,10.10
2023-04-12T17:20:50.945Z,10.00
2023-04-12T17:23:21.153Z,10.00
2023-04-12T17:25:52.073Z,9.90
2023-04-12T17:28:24.091Z,9.90
2023-04-12T17:30:59.276Z,9.80
2023-04-12T17:33:29.553Z,9.70
2023-04-12T17:35:59.822Z,9.70
2023-04-12T17:38:30.182Z,9.80
2023-04-12T17:41:00.448Z,9.90
2023-04-12T17:43:30.628Z,9.90
2023-04-12T17:46:04.168Z,9.80
2023-04-12T17:48:36.112Z,9.70
2023-04-12T17:51:06.849Z,9.70
2023-04-12T17:53:38.078Z,9.50
2023-04-12T17:56:09.832Z,9.50
2023-04-12T17:58:40.056Z,9.60
2023-04-12T18:01:12.928Z,9.70
2023-04-12T18:03:43.460Z,9.80
2023-04-12T18:06:14.023Z,9.90
2023-04-12T18:08:45.378Z,10.00
2023-04-12T18:11:17.187Z,9.90
2023-04-12T18:13:47.519Z,9.80
2023-04-12T18:16:20.349Z,9.80
2023-04-12T18:18:50.885Z,9.80
2023-04-12T18:21:22.299Z,9.80
2023-04-12T18:23:54.290Z,9.70
2023-04-12T18:26:24.871Z,9.60
2023-04-12T18:28:55.487Z,9.60
2023-04-12T18:31:32.203Z,9.50
2023-04-12T18:34:02.557Z,9.60
2023-04-12T18:36:32.765Z,9.60
2023-04-12T18:39:02.995Z,9.60
2023-04-12T18:41:33.217Z,9.60
2023-04-12T18:44:04.919Z,9.60
2023-04-12T18:46:55.025Z,9.60
2023-04-12T18:49:27.457Z,9.50
2023-04-12T18:52:00.812Z,9.40
2023-04-12T18:54:31.052Z,9.30
2023-04-12T18:57:05.387Z,9.20
2023-04-12T18:59:35.732Z,9.10
2023-04-12T19:02:13.036Z,9.00
2023-04-12T19:04:43.968Z,8.90
2023-04-12T19:07:15.428Z,8.90
2023-04-12T19:09:48.812Z,8.90
2023-04-12T19:12:19.046Z,8.80
2023-04-12T19:14:49.380Z,8.70
2023-04-12T19:17:27.989Z,8.70
2023-04-12T19:19:58.380Z,8.70
2023-04-12T19:22:29.178Z,8.60
2023-04-12T19:24:59.357Z,8.60
2023-04-12T19:27:29.653Z,8.60
2023-04-12T19:29:59.825Z,8.70
2023-04-12T19:32:40.249Z,8.70
2023-04-12T19:35:14.094Z,8.60
2023-04-12T19:37:44.895Z,8.50
2023-04-12T19:40:16.059Z,8.30
2023-04-12T19:42:46.783Z,8.30
2023-04-12T19:45:17.259Z,8.30
2023-04-12T19:47:50.187Z,8.30
2023-04-12T19:50:20.517Z,8.20
2023-04-12T19:52:50.883Z,8.10
2023-04-12T19:55:21.586Z,8.10
2023-04-12T19:57:52.003Z,8.10
2023-04-12T20:00:25.426Z,8.10
2023-04-12T20:02:58.641Z,8.00
2023-04-12T20:05:29.151Z,8.00
2023-04-12T20:07:59.713Z,8.00
2023-04-12T20:10:29.969Z,8.00
2023-04-12T20:13:00.186Z,7.90
2023-04-12T20:15:31.092Z,7.90
2023-04-12T20:18:05.192Z,7.80
2023-04-12T20:20:35.540Z,7.80
2023-04-12T20:23:05.716Z,7.90
2023-04-12T20:25:37.856Z,7.90
2023-04-12T20:28:08.783Z,8.00
2023-04-12T20:30:39.438Z,8.10
2023-04-12T20:33:13.121Z,8.10
2023-04-12T20:35:43.520Z,8.10
2023-04-12T20:38:13.786Z,8.20
2023-04-12T20:40:45.170Z,8.30
2023-04-12T20:43:15.703Z,8.10
2023-04-12T20:45:46.804Z,8.10
2023-04-12T20:48:19.874Z,8.10
2023-04-12T20:50:50.517Z,8.10
2023-04-12T20:53:21.161Z,8.10
2023-04-12T20:55:53.605Z,8.00
2023-04-12T20:58:24.778Z,7.90
2023-04-12T21:00:55.055Z,7.90
2023-04-12T21:03:27.956Z,7.90
2023-04-12T21:05:58.712Z,7.90
2023-04-12T21:08:28.878Z,8.10
2023-04-12T21:10:59.773Z,8.20
2023-04-12T21:13:30.141Z,8.30
2023-04-12T21:16:00.826Z,8.20
2023-04-12T21:18:36.159Z,8.20
2023-04-12T21:21:06.597Z,8.20
2023-04-12T21:23:36.797Z,8.10
2023-04-12T21:26:07.459Z,7.80
2023-04-12T21:28:39.022Z,7.60
2023-04-12T21:31:12.350Z,7.50
2023-04-12T21:33:45.160Z,7.50
2023-04-12T21:36:15.848Z,7.50
2023-04-12T21:38:46.709Z,7.40
2023-04-12T21:41:17.539Z,7.50
2023-04-12T21:43:49.684Z,7.40
2023-04-12T21:46:22.410Z,7.40
2023-04-12T21:48:55.216Z,7.40
2023-04-12T21:51:26.551Z,7.30
2023-04-12T21:53:56.748Z,7.30
2023-04-12T21:56:27.056Z,7.40
2023-04-12T21:59:00.563Z,7.40
2023-04-12T22:01:31.473Z,7.20
2023-04-12T22:04:04.667Z,7.00
2023-04-12T22:06:35.012Z,7.00
2023-04-12T22:09:05.560Z,6.80
2023-04-12T22:11:35.864Z,6.80
2023-04-12T22:14:06.138Z,6.70
2023-04-12T22:16:36.987Z,6.70
2023-04-12T22:19:09.835Z,6.60
2023-04-12T22:21:40.249Z,6.60
2023-04-12T22:24:10.899Z,6.50
2023-04-12T22:26:41.097Z,6.50
2023-04-12T22:29:11.269Z,6.50
2023-04-12T22:31:43.671Z,6.50
2023-04-12T22:34:16.486Z,6.60
2023-04-12T22:36:51.742Z,6.60
2023-04-12T22:39:22.002Z,6.70
2023-04-12T22:41:53.366Z,6.70
2023-04-12T22:44:24.624Z,6.80
2023-04-12T22:46:58.534Z,6.90
2023-04-12T22:49:31.540Z,6.90
2023-04-12T22:52:01.977Z,6.90
2023-04-12T22:54:32.241Z,7.00
2023-04-12T22:57:02.580Z,7.00
2023-04-12T22:59:33.069Z,7.00
2023-04-12T23:02:06.715Z,7.00
2023-04-12T23:04:39.693Z,7.00
2023-04-12T23:07:11.919Z,7.00
2023-04-12T23:09:44.295Z,7.00
2023-04-12T23:12:15.097Z,7.00
2023-04-12T23:14:48.821Z,7.00
2023-04-12T23:17:19.887Z,7.00
2023-04-12T23:19:54.108Z,7.10
2023-04-12T23:22:55.791Z,7.20
2023-04-12T23:25:38.143Z,7.20
2023-04-12T23:28:13.509Z,7.20
2023-04-12T23:30:49.784Z,7.30
2023-04-12T23:33:21.959Z,7.30
2023-04-12T23:35:56.237Z,7.30
2023-04-12T23:38:32.842Z,7.40
2023-04-12T23:41:04.476Z,7.40
2023-04-12T23:43:38.112Z,7.40
2023-04-12T23:46:12.330Z,7.40
2023-04-12T23:48:42.703Z,7.40
2023-04-12T23:51:15.456Z,7.50
2023-04-12T23:53:46.267Z,7.50
2023-04-12T23:56:16.591Z,7.50
2023-04-12T23:58:47.217Z,7.50
